createdAt,value
2023-02-25T00:00:56.838Z,3.42
2023-02-25T00:03:24.648Z,3.41
2023-02-25T00:05:52.470Z,3.40
2023-02-25T00:08:20.358Z,3.54
2023-02-25T00:10:57.822Z,3.49
2023-02-25T00:13:25.679Z,3.50
2023-02-25T00:15:53.503Z,3.51
2023-02-25T00:18:21.384Z,3.42
2023-02-25T00:20:49.172Z,3.50
2023-02-25T00:23:16.993Z,3.47
2023-02-25T00:25:45.555Z,3.40
2023-02-25T00:28:14.743Z,3.36
2023-02-25T00:30:42.999Z,3.35
2023-02-25T00:33:12.705Z,3.40
2023-02-25T00:35:41.222Z,3.41
2023-02-25T00:38:15.646Z,3.44
2023-02-25T00:40:46.344Z,3.38
2023-02-25T00:43:15.543Z,3.33
2023-02-25T00:45:44.810Z,3.32
2023-02-25T00:48:14.892Z,3.30
2023-02-25T00:50:42.662Z,3.26
2023-02-25T00:53:10.454Z,3.17
2023-02-25T00:55:38.320Z,3.11
2023-02-25T00:58:06.263Z,3.14
2023-02-25T01:00:46.405Z,3.23
2023-02-25T01:03:18.124Z,3.24
2023-02-25T01:05:49.518Z,3.27
2023-02-25T01:08:18.680Z,3.28
2023-02-25T01:10:47.057Z,3.29
2023-02-25T01:13:15.556Z,3.23
2023-02-25T01:15:44.817Z,3.31
2023-02-25T01:18:12.759Z,3.33
2023-02-25T01:20:41.164Z,3.33
2023-02-25T01:23:09.187Z,3.26
2023-02-25T01:25:42.018Z,3.32
2023-02-25T01:28:09.831Z,3.36
2023-02-25T01:30:38.386Z,3.32
2023-02-25T01:33:07.715Z,3.31
2023-02-25T01:35:36.995Z,3.24
2023-02-25T01:38:04.975Z,3.25
2023-02-25T01:40:32.846Z,3.27
2023-02-25T01:43:00.695Z,3.17
2023-02-25T01:45:31.526Z,3.15
2023-02-25T01:48:04.366Z,3.17
2023-02-25T01:50:37.494Z,3.14
2023-02-25T01:53:05.335Z,3.15
2023-02-25T01:55:34.444Z,3.05
2023-02-25T01:58:02.988Z,3.03
2023-02-25T02:00:32.737Z,2.98
2023-02-25T02:03:01.073Z,2.96
2023-02-25T02:05:42.257Z,3.01
2023-02-25T02:08:10.749Z,2.99
2023-02-25T02:10:38.596Z,3.01
2023-02-25T02:13:06.653Z,3.05
2023-02-25T02:15:39.205Z,3.07
2023-02-25T02:18:08.695Z,2.94
2023-02-25T02:20:47.516Z,2.90
2023-02-25T02:23:35.337Z,2.97
2023-02-25T02:26:24.171Z,2.92
2023-02-25T02:29:27.687Z,3.05
2023-02-25T02:32:10.563Z,3.10
2023-02-25T02:34:43.772Z,3.16
2023-02-25T02:37:22.582Z,3.05
2023-02-25T02:39:58.411Z,3.08
2023-02-25T02:42:31.357Z,3.07
2023-02-25T02:45:04.316Z,3.15
2023-02-25T02:47:36.558Z,3.20
2023-02-25T02:50:07.697Z,3.12
2023-02-25T02:52:39.719Z,3.07
2023-02-25T02:55:09.645Z,3.04
2023-02-25T02:57:39.608Z,3.02
2023-02-25T03:00:17.489Z,3.03
2023-02-25T03:02:52.535Z,3.03
2023-02-25T03:05:21.476Z,3.05
2023-02-25T03:07:55.462Z,3.10
2023-02-25T03:10:24.056Z,3.06
2023-02-25T03:12:51.926Z,3.07
2023-02-25T03:15:21.500Z,2.97
2023-02-25T03:17:53.836Z,2.98
2023-02-25T03:20:26.592Z,2.93
2023-02-25T03:22:55.705Z,2.86
2023-02-25T03:25:26.741Z,2.84
2023-02-25T03:27:56.252Z,2.72
2023-02-25T03:30:31.380Z,2.77
2023-02-25T03:33:04.678Z,2.65
2023-02-25T03:35:33.715Z,2.72
2023-02-25T03:38:05.189Z,2.67
2023-02-25T03:40:35.855Z,2.71
2023-02-25T03:43:08.488Z,2.70
2023-02-25T03:45:38.736Z,2.64
2023-02-25T03:48:09.164Z,2.61
2023-02-25T03:50:41.414Z,2.60
2023-02-25T03:53:10.770Z,2.44
2023-02-25T03:56:06.810Z,2.47
2023-02-25T03:58:37.598Z,2.36
2023-02-25T04:01:07.672Z,2.34
2023-02-25T04:03:37.099Z,2.40
2023-02-25T04:06:06.155Z,2.26
2023-02-25T04:08:33.987Z,2.15
2023-02-25T04:11:02.203Z,2.15
2023-02-25T04:13:30.057Z,2.12
2023-02-25T04:15:58.110Z,2.09
2023-02-25T04:18:26.688Z,2.15
2023-02-25T04:20:56.108Z,2.07
2023-02-25T04:23:23.965Z,2.03
2023-02-25T04:25:51.820Z,2.03
2023-02-25T04:28:19.623Z,1.96
2023-02-25T04:30:47.614Z,1.96
2023-02-25T04:33:15.520Z,1.97
2023-02-25T04:35:44.248Z,2.08
2023-02-25T04:38:13.383Z,2.08
2023-02-25T04:40:41.571Z,1.96
2023-02-25T04:43:09.984Z,1.91
2023-02-25T04:45:37.835Z,1.86
2023-02-25T04:48:06.590Z,1.88
2023-02-25T04:50:34.617Z,1.80
2023-02-25T04:53:03.270Z,1.78
2023-02-25T04:55:32.580Z,1.70
2023-02-25T04:58:00.434Z,1.65
2023-02-25T05:00:28.720Z,1.76
2023-02-25T05:02:58.586Z,1.74
2023-02-25T05:05:26.487Z,1.75
2023-02-25T05:07:54.372Z,1.79
2023-02-25T05:10:22.238Z,1.81
2023-02-25T05:12:51.380Z,1.78
2023-02-25T05:15:19.383Z,1.79
2023-02-25T05:17:47.893Z,1.84
2023-02-25T05:20:15.950Z,1.91
2023-02-25T05:22:43.772Z,1.86
2023-02-25T05:25:12.255Z,1.86
2023-02-25T05:27:40.197Z,1.79
2023-02-25T05:30:11.304Z,1.77
2023-02-25T05:32:39.720Z,1.78
2023-02-25T05:35:09.874Z,1.86
2023-02-25T05:37:37.748Z,1.89
2023-02-25T05:40:08.335Z,1.87
2023-02-25T05:42:37.395Z,1.79
2023-02-25T05:45:05.557Z,1.72
2023-02-25T05:47:34.761Z,1.72
2023-02-25T05:50:02.651Z,1.72
2023-02-25T05:52:30.538Z,1.64
2023-02-25T05:54:58.359Z,1.62
2023-02-25T05:57:26.387Z,1.55
2023-02-25T05:59:54.204Z,1.57
2023-02-25T06:02:22.188Z,1.42
2023-02-25T06:04:53.951Z,1.48
2023-02-25T06:07:21.825Z,1.50
2023-02-25T06:09:49.897Z,1.50
2023-02-25T06:12:17.733Z,1.37
2023-02-25T06:14:45.553Z,1.43
2023-02-25T06:17:13.384Z,1.42
2023-02-25T06:19:41.277Z,1.30
2023-02-25T06:22:10.440Z,1.38
2023-02-25T06:24:38.246Z,1.30
2023-02-25T06:27:06.082Z,1.27
2023-02-25T06:29:33.929Z,1.32
2023-02-25T06:32:02.159Z,1.31
2023-02-25T06:34:33.268Z,1.30
2023-02-25T06:37:01.998Z,1.28
2023-02-25T06:39:31.218Z,1.34
2023-02-25T06:41:59.083Z,1.45
2023-02-25T06:44:27.173Z,1.33
2023-02-25T06:46:55.883Z,1.17
2023-02-25T06:49:24.267Z,1.25
2023-02-25T06:51:52.126Z,1.22
2023-02-25T06:54:20.199Z,1.21
2023-02-25T06:56:49.574Z,1.18
2023-02-25T06:59:17.454Z,1.14
2023-02-25T07:01:45.267Z,1.17
2023-02-25T07:04:16.557Z,1.16
2023-02-25T07:06:44.475Z,1.10
2023-02-25T07:09:12.548Z,1.12
2023-02-25T07:11:40.397Z,1.09
2023-02-25T07:14:09.539Z,1.08
2023-02-25T07:16:37.416Z,1.05
2023-02-25T07:19:05.309Z,1.03
2023-02-25T07:21:33.794Z,1.13
2023-02-25T07:24:01.692Z,1.16
2023-02-25T07:26:29.531Z,1.08
2023-02-25T07:28:58.052Z,1.20
2023-02-25T07:31:29.076Z,1.08
2023-02-25T07:33:57.546Z,1.15
2023-02-25T07:36:27.478Z,1.16
2023-02-25T07:38:55.333Z,1.19
2023-02-25T07:41:23.516Z,1.28
2023-02-25T07:43:52.402Z,1.31
2023-02-25T07:46:20.297Z,1.35
2023-02-25T07:48:49.734Z,1.36
2023-02-25T07:51:19.220Z,1.34
2023-02-25T07:53:47.672Z,1.41
2023-02-25T07:56:15.861Z,1.63
2023-02-25T07:58:43.680Z,1.70
2023-02-25T08:01:12.205Z,1.74
2023-02-25T08:03:40.015Z,1.75
2023-02-25T08:06:09.443Z,1.88
2023-02-25T08:08:38.245Z,1.84
2023-02-25T08:11:07.292Z,1.87
2023-02-25T08:13:35.311Z,2.00
2023-02-25T08:16:06.008Z,2.08
2023-02-25T08:18:33.976Z,2.09
2023-02-25T08:21:02.952Z,2.04
2023-02-25T08:23:32.713Z,2.16
2023-02-25T08:26:01.254Z,2.13
2023-02-25T08:28:34.257Z,2.21
2023-02-25T08:31:04.315Z,2.33
2023-02-25T08:33:32.292Z,2.31
2023-02-25T08:36:09.591Z,2.30
2023-02-25T08:38:39.446Z,2.23
2023-02-25T08:41:08.249Z,2.14
2023-02-25T08:43:36.744Z,2.17
2023-02-25T08:46:06.393Z,1.73
2023-02-25T08:48:34.529Z,1.30
2023-02-25T08:51:04.137Z,1.30
2023-02-25T08:53:32.010Z,1.13
2023-02-25T08:56:05.252Z,1.02
2023-02-25T08:58:33.348Z,1.01
2023-02-25T09:01:01.438Z,1.05
2023-02-25T09:03:29.388Z,1.12
2023-02-25T09:05:57.594Z,1.14
2023-02-25T09:08:25.491Z,1.17
2023-02-25T09:10:53.290Z,1.24
2023-02-25T09:13:22.542Z,1.34
2023-02-25T09:15:57.329Z,1.27
2023-02-25T09:18:25.223Z,0.91
2023-02-25T09:20:53.727Z,0.79
2023-02-25T09:23:21.687Z,0.91
2023-02-25T09:25:49.558Z,1.04
2023-02-25T09:28:17.524Z,1.27
2023-02-25T09:30:48.223Z,1.40
2023-02-25T09:33:16.331Z,1.53
2023-02-25T09:35:45.288Z,1.65
2023-02-25T09:38:13.468Z,1.68
2023-02-25T09:40:42.521Z,1.77
2023-02-25T09:43:20.259Z,1.84
2023-02-25T09:45:50.991Z,1.87
2023-02-25T09:48:21.085Z,1.88
2023-02-25T09:50:52.412Z,1.95
2023-02-25T09:53:23.193Z,1.71
2023-02-25T09:55:52.512Z,1.67
2023-02-25T09:58:26.214Z,1.62
2023-02-25T10:01:01.810Z,1.61
2023-02-25T10:03:41.858Z,1.55
2023-02-25T10:06:13.564Z,1.57
2023-02-25T10:08:45.681Z,1.77
2023-02-25T10:11:16.664Z,2.05
2023-02-25T10:13:49.771Z,1.84
2023-02-25T10:16:36.174Z,1.82
2023-02-25T10:19:11.785Z,2.00
2023-02-25T10:21:51.466Z,2.09
2023-02-25T10:24:31.949Z,2.05
2023-02-25T10:27:07.478Z,2.00
2023-02-25T10:29:39.679Z,2.07
2023-02-25T10:32:18.361Z,2.18
2023-02-25T10:34:46.932Z,2.06
2023-02-25T10:37:18.549Z,2.30
2023-02-25T10:39:48.565Z,2.17
2023-02-25T10:42:17.399Z,2.18
2023-02-25T10:44:45.507Z,2.04
2023-02-25T10:47:20.016Z,2.09
2023-02-25T10:50:13.027Z,2.14
2023-02-25T10:52:54.709Z,2.07
2023-02-25T10:55:51.380Z,2.09
2023-02-25T10:58:34.851Z,2.12
2023-02-25T11:01:07.078Z,2.09
2023-02-25T11:03:43.723Z,2.25
2023-02-25T11:06:15.576Z,2.24
2023-02-25T11:08:44.252Z,2.20
2023-02-25T11:11:18.284Z,2.26
2023-02-25T11:13:46.486Z,2.33
2023-02-25T11:16:15.284Z,2.39
2023-02-25T11:18:44.531Z,2.32
2023-02-25T11:21:14.459Z,2.24
2023-02-25T11:23:47.218Z,2.24
2023-02-25T11:26:16.363Z,2.29
2023-02-25T11:28:46.962Z,2.21
2023-02-25T11:31:19.000Z,2.27
2023-02-25T11:33:53.061Z,2.31
2023-02-25T11:36:23.643Z,2.44
2023-02-25T11:39:05.921Z,2.48
2023-02-25T11:41:33.865Z,2.28
2023-02-25T11:44:18.926Z,2.37
2023-02-25T11:46:50.586Z,2.20
2023-02-25T11:49:23.403Z,2.21
2023-02-25T11:51:54.749Z,2.26
2023-02-25T11:54:26.103Z,2.37
2023-02-25T11:56:57.064Z,2.81
2023-02-25T11:59:32.858Z,2.85
2023-02-25T12:02:16.109Z,2.96
2023-02-25T12:05:01.848Z,2.76
2023-02-25T12:08:12.893Z,2.82
2023-02-25T12:11:02.384Z,2.68
2023-02-25T12:13:56.966Z,2.63
2023-02-25T12:16:55.817Z,2.62
2023-02-25T12:19:38.549Z,2.53
2023-02-25T12:22:17.279Z,2.64
2023-02-25T12:25:00.277Z,2.55
2023-02-25T12:27:40.950Z,2.43
2023-02-25T12:30:29.308Z,2.47
2023-02-25T12:33:07.285Z,2.53
2023-02-25T12:35:50.876Z,2.58
2023-02-25T12:38:52.352Z,2.66
2023-02-25T12:41:35.040Z,2.54
2023-02-25T12:44:20.440Z,2.62
2023-02-25T12:47:02.027Z,2.81
2023-02-25T12:49:49.228Z,2.69
2023-02-25T12:52:25.680Z,2.91
2023-02-25T12:55:17.177Z,2.73
2023-02-25T12:57:52.877Z,2.97
2023-02-25T13:00:33.948Z,3.02
2023-02-25T13:03:21.165Z,2.90
2023-02-25T13:06:22.301Z,3.04
2023-02-25T13:09:25.663Z,2.94
2023-02-25T13:12:12.906Z,3.02
2023-02-25T13:14:51.014Z,3.20
2023-02-25T13:17:34.502Z,2.91
2023-02-25T13:20:34.728Z,2.84
2023-02-25T13:23:21.106Z,2.89
2023-02-25T13:26:06.147Z,2.69
2023-02-25T13:28:46.308Z,2.82
2023-02-25T13:31:20.139Z,2.82
2023-02-25T13:34:03.924Z,2.86
2023-02-25T13:36:43.444Z,2.66
2023-02-25T13:39:24.814Z,2.49
2023-02-25T13:42:10.120Z,2.78
2023-02-25T13:44:57.371Z,2.47
2023-02-25T13:47:35.571Z,2.68
2023-02-25T13:50:23.579Z,2.69
2023-02-25T13:53:02.971Z,2.45
2023-02-25T13:55:43.989Z,2.48
2023-02-25T13:58:35.400Z,2.43
2023-02-25T14:01:17.205Z,2.43
2023-02-25T14:04:14.993Z,2.46
2023-02-25T14:07:05.361Z,2.60
2023-02-25T14:09:38.275Z,2.50
2023-02-25T14:12:12.849Z,2.48
2023-02-25T14:15:19.681Z,2.43
2023-02-25T14:17:58.742Z,2.44
2023-02-25T14:20:39.875Z,2.15
2023-02-25T14:23:14.006Z,2.14
2023-02-25T14:26:11.540Z,2.12
2023-02-25T14:28:44.966Z,2.07
2023-02-25T14:31:16.884Z,2.08
2023-02-25T14:34:06.144Z,2.03
2023-02-25T14:36:59.341Z,1.96
2023-02-25T14:39:36.202Z,2.08
2023-02-25T14:42:22.290Z,2.05
2023-02-25T14:44:56.696Z,2.08
2023-02-25T14:47:28.824Z,1.93
2023-02-25T14:50:00.276Z,1.89
2023-02-25T14:52:40.158Z,1.95
2023-02-25T14:55:33.237Z,1.93
2023-02-25T14:58:23.004Z,1.87
2023-02-25T15:01:03.115Z,1.84
2023-02-25T15:03:43.256Z,1.78
2023-02-25T15:06:24.462Z,1.86
2023-02-25T15:09:11.654Z,1.88
2023-02-25T15:11:46.152Z,1.80
2023-02-25T15:14:47.043Z,1.86
2023-02-25T15:17:44.577Z,1.88
2023-02-25T15:20:25.287Z,1.78
2023-02-25T15:23:06.923Z,1.84
2023-02-25T15:25:52.907Z,1.91
2023-02-25T15:28:42.357Z,1.87
2023-02-25T15:31:38.819Z,1.85
2023-02-25T15:34:32.797Z,1.97
2023-02-25T15:37:24.440Z,1.93
2023-02-25T15:39:56.336Z,1.96
2023-02-25T15:42:46.251Z,2.08
2023-02-25T15:45:37.981Z,2.05
2023-02-25T15:48:35.949Z,2.11
2023-02-25T15:51:06.377Z,2.08
2023-02-25T15:53:42.418Z,2.20
2023-02-25T15:56:58.990Z,2.29
2023-02-25T15:59:44.902Z,2.30
2023-02-25T16:02:35.472Z,2.35
2023-02-25T16:05:05.497Z,2.32
2023-02-25T16:07:37.097Z,2.24
2023-02-25T16:10:09.601Z,2.21
2023-02-25T16:12:39.202Z,2.17
2023-02-25T16:15:13.699Z,2.16
2023-02-25T16:17:41.619Z,2.14
2023-02-25T16:20:18.249Z,2.14
2023-02-25T16:22:48.220Z,2.04
2023-02-25T16:25:18.377Z,1.98
2023-02-25T16:27:54.275Z,1.86
2023-02-25T16:30:29.094Z,1.87
2023-02-25T16:33:04.465Z,1.99
2023-02-25T16:35:35.630Z,1.69
2023-02-25T16:38:09.381Z,1.44
2023-02-25T16:40:39.318Z,1.38
2023-02-25T16:43:11.224Z,1.27
2023-02-25T16:45:43.659Z,1.26
2023-02-25T16:48:16.800Z,1.27
2023-02-25T16:50:47.227Z,1.32
2023-02-25T16:53:20.512Z,1.36
2023-02-25T16:55:48.686Z,1.44
2023-02-25T16:58:24.577Z,1.46
2023-02-25T17:00:55.208Z,1.54
2023-02-25T17:03:24.367Z,1.48
2023-02-25T17:06:04.556Z,1.27
2023-02-25T17:08:32.406Z,1.17
2023-02-25T17:11:01.296Z,0.97
2023-02-25T17:13:30.705Z,0.61
2023-02-25T17:16:00.804Z,0.64
2023-02-25T17:18:32.807Z,0.55
2023-02-25T17:21:03.128Z,0.66
2023-02-25T17:23:31.411Z,0.74
2023-02-25T17:26:00.053Z,0.75
2023-02-25T17:28:30.818Z,0.70
2023-02-25T17:31:11.925Z,0.69
2023-02-25T17:33:49.253Z,0.75
2023-02-25T17:36:19.181Z,0.75
2023-02-25T17:38:47.494Z,0.67
2023-02-25T17:41:18.902Z,0.49
2023-02-25T17:43:46.869Z,0.48
2023-02-25T17:46:19.046Z,0.43
2023-02-25T17:48:52.672Z,0.44
2023-02-25T17:51:29.004Z,0.47
2023-02-25T17:53:58.590Z,0.49
2023-02-25T17:56:28.715Z,0.45
2023-02-25T17:59:01.534Z,0.59
2023-02-25T18:01:31.763Z,0.70
2023-02-25T18:04:00.913Z,0.69
2023-02-25T18:06:41.009Z,0.70
2023-02-25T18:09:29.340Z,0.76
2023-02-25T18:11:58.316Z,0.70
2023-02-25T18:14:29.453Z,0.66
2023-02-25T18:16:59.347Z,0.72
2023-02-25T18:19:37.321Z,0.66
2023-02-25T18:22:05.605Z,0.65
2023-02-25T18:24:35.199Z,0.47
2023-02-25T18:27:06.076Z,0.50
2023-02-25T18:29:34.429Z,0.55
2023-02-25T18:32:03.842Z,0.62
2023-02-25T18:34:31.845Z,0.48
2023-02-25T18:37:00.431Z,0.37
2023-02-25T18:39:28.324Z,0.39
2023-02-25T18:41:56.133Z,0.53
2023-02-25T18:44:24.287Z,0.53
2023-02-25T18:46:52.127Z,0.51
2023-02-25T18:49:21.385Z,0.57
2023-02-25T18:51:50.083Z,0.55
2023-02-25T18:54:18.219Z,0.54
2023-02-25T18:56:46.079Z,0.50
2023-02-25T18:59:13.923Z,0.47
2023-02-25T19:01:41.880Z,0.48
2023-02-25T19:04:15.247Z,0.64
2023-02-25T19:06:44.499Z,0.50
2023-02-25T19:09:12.380Z,0.56
2023-02-25T19:11:41.029Z,0.56
2023-02-25T19:14:08.977Z,0.64
2023-02-25T19:16:37.021Z,0.64
2023-02-25T19:19:04.977Z,0.69
2023-02-25T19:21:32.779Z,0.79
2023-02-25T19:24:04.143Z,0.74
2023-02-25T19:26:31.992Z,0.76
2023-02-25T19:29:00.695Z,0.77
2023-02-25T19:31:28.612Z,0.91
2023-02-25T19:33:56.595Z,0.95
2023-02-25T19:36:24.732Z,0.99
2023-02-25T19:38:52.805Z,1.05
2023-02-25T19:41:22.050Z,1.17
2023-02-25T19:43:49.964Z,1.18
2023-02-25T19:46:18.309Z,1.13
2023-02-25T19:48:46.148Z,1.18
2023-02-25T19:51:13.989Z,1.24
2023-02-25T19:53:41.860Z,1.24
2023-02-25T19:56:09.686Z,1.19
2023-02-25T19:58:38.912Z,1.30
2023-02-25T20:01:08.717Z,1.47
2023-02-25T20:03:37.200Z,1.40
2023-02-25T20:06:06.818Z,1.54
2023-02-25T20:08:36.463Z,1.44
2023-02-25T20:11:04.430Z,1.51
2023-02-25T20:13:32.286Z,1.57
2023-02-25T20:16:02.610Z,1.49
2023-02-25T20:18:30.488Z,1.39
2023-02-25T20:20:58.411Z,1.35
2023-02-25T20:23:26.476Z,1.37
2023-02-25T20:26:03.835Z,1.41
2023-02-25T20:28:31.753Z,1.40
2023-02-25T20:31:08.899Z,1.39
2023-02-25T20:33:37.461Z,1.38
2023-02-25T20:36:18.121Z,1.49
2023-02-25T20:38:55.679Z,1.60
2023-02-25T20:41:23.704Z,1.45
2023-02-25T20:43:51.678Z,1.45
2023-02-25T20:46:24.767Z,1.52
2023-02-25T20:48:53.033Z,1.54
2023-02-25T20:51:21.370Z,1.45
2023-02-25T20:53:49.716Z,1.51
2023-02-25T20:56:20.540Z,1.47
2023-02-25T20:58:48.443Z,1.38
2023-02-25T21:01:16.355Z,1.33
2023-02-25T21:03:45.571Z,1.49
2023-02-25T21:06:14.076Z,1.41
2023-02-25T21:08:42.412Z,1.45
2023-02-25T21:11:10.284Z,1.40
2023-02-25T21:13:38.164Z,1.41
2023-02-25T21:16:07.926Z,1.37
2023-02-25T21:18:35.836Z,1.40
2023-02-25T21:21:07.668Z,1.44
2023-02-25T21:23:36.354Z,1.30
2023-02-25T21:26:05.322Z,1.39
2023-02-25T21:28:33.866Z,1.42
2023-02-25T21:31:02.991Z,1.38
2023-02-25T21:33:31.807Z,1.28
2023-02-25T21:35:59.852Z,1.27
2023-02-25T21:38:29.618Z,1.32
2023-02-25T21:40:58.108Z,1.30
2023-02-25T21:43:25.912Z,1.25
2023-02-25T21:45:54.441Z,1.25
2023-02-25T21:48:22.425Z,1.27
2023-02-25T21:50:50.285Z,1.34
2023-02-25T21:53:18.358Z,1.20
2023-02-25T21:55:47.833Z,1.30
2023-02-25T21:58:16.345Z,1.23
2023-02-25T22:00:44.158Z,1.21
2023-02-25T22:03:11.981Z,1.27
2023-02-25T22:05:40.235Z,1.33
2023-02-25T22:08:08.048Z,1.31
2023-02-25T22:10:36.567Z,1.33
2023-02-25T22:13:05.719Z,1.35
2023-02-25T22:15:33.557Z,1.38
2023-02-25T22:18:01.350Z,1.33
2023-02-25T22:20:29.155Z,1.47
2023-02-25T22:22:58.034Z,1.48
2023-02-25T22:25:25.932Z,1.49
2023-02-25T22:27:53.755Z,1.41
2023-02-25T22:30:22.995Z,1.42
2023-02-25T22:32:50.846Z,1.41
2023-02-25T22:35:18.801Z,1.39
2023-02-25T22:37:46.682Z,1.33
2023-02-25T22:40:14.904Z,1.45
2023-02-25T22:42:42.892Z,1.59
2023-02-25T22:45:11.388Z,1.60
2023-02-25T22:47:40.705Z,1.55
2023-02-25T22:50:09.403Z,1.51
2023-02-25T22:52:37.278Z,1.41
2023-02-25T22:55:05.733Z,1.49
2023-02-25T22:57:33.599Z,1.43
2023-02-25T23:00:01.550Z,1.59
2023-02-25T23:02:30.181Z,1.56
2023-02-25T23:04:59.393Z,1.58
2023-02-25T23:07:27.264Z,1.50
2023-02-25T23:09:55.090Z,1.53
2023-02-25T23:12:22.994Z,1.64
2023-02-25T23:14:50.831Z,1.50
2023-02-25T23:17:18.740Z,1.50
2023-02-25T23:19:46.564Z,1.46
2023-02-25T23:22:23.537Z,1.58
2023-02-25T23:24:51.362Z,1.58
2023-02-25T23:27:19.578Z,1.49
2023-02-25T23:29:47.483Z,1.47
2023-02-25T23:32:15.544Z,1.50
2023-02-25T23:34:43.424Z,1.61
2023-02-25T23:37:11.448Z,1.47
2023-02-25T23:39:40.863Z,1.58
2023-02-25T23:42:09.799Z,1.46
2023-02-25T23:44:37.814Z,1.45
2023-02-25T23:47:05.732Z,1.50
2023-02-25T23:49:33.583Z,1.56
2023-02-25T23:52:01.403Z,1.57
2023-02-25T23:54:29.280Z,1.49
2023-02-25T23:56:58.471Z,1.57
2023-02-25T23:59:26.283Z,1.50
